Thunder radar more information blitzortung!


Radar de pluja more information rain snow radar


Visita la nostra xarxa de llocs de meteo:

Template documentation
and downloads

And another site



No particular awareness of the weather is required.    There are no Weather-warnings

Pagina Historial Weather Underground text

Diari Resum Novembre 13, 2017 Unitats:  Mètric    Imperial   Tant
« Previous Dia
SegĂźent Dia »
Diari Setmana Mensual Anual Personalitzada
  Maxima: Minima: Media:
Temperatura: -17.8 °C -14.5 °C -11.4 °C
Punt de rosada: -17.8 °C -24.1 °C -20.8 °C
Humitat: Humidity % 22 % 32 %
Wind Speed: 0 km/h 0 km/h 11.1 km/h
RĂ fegues de vent: 0 km/h - -
Vent:- - SSW
Pression baro: 0 hPa 34198.6 hPa -
Precipitacions: 0 mm    
Historical Graphs
 
 
Dades de taula per Novembre 13, 2017
Temps Temperatura Punt de rosada Pression baro Vent Wind Speed RĂ fegues de vent Humitat Rainfall Rate (Hourly)
-17.8 °C -17.8 °C 0 hPa Calm     Humidity % 0 mm
00:01 -10.4 °C -14.1 °C 34198.6 hPa West 17.9 km/h 17.9 km/h 64 % 0 mm
01:10 -13.7 °C -16.1 °C 34256.2 hPa Calm   5.1 km/h 74 % 0 mm
01:20 -13.7 °C -15.9 °C 34256.2 hPa Calm   5.1 km/h 75 % 0 mm
01:30 -13.8 °C -16.1 °C 34293.4 hPa North 2.6 km/h 5.1 km/h 75 % 0 mm
01:40 -13.9 °C -16.3 °C 34327.3 hPa NNE 2.6 km/h 7.7 km/h 74 % 0 mm
01:50 -14 °C -16.4 °C 34327.3 hPa NE 2.6 km/h 7.7 km/h 74 % 0 mm
02:00 -14.1 °C -16.7 °C 34327.3 hPa NW 7.7 km/h 10.3 km/h 72 % 0 mm
02:10 -13.7 °C -16.3 °C 34327.3 hPa WNW 2.6 km/h 5.1 km/h 72 % 0 mm
02:20 -13.4 °C -16.2 °C 34327.3 hPa West 2.6 km/h 7.7 km/h 70 % 0 mm
02:30 -13.4 °C -16.2 °C 34327.3 hPa SSW 5.1 km/h 7.7 km/h 70 % 0 mm
02:40 -13.2 °C -16.2 °C 34327.3 hPa WSW 5.1 km/h 7.7 km/h 69 % 0 mm
02:50 -13 °C -16.1 °C 34327.3 hPa WSW 5.1 km/h 10.3 km/h 68 % 0 mm
03:00 -12.4 °C -15.7 °C 34327.3 hPa WSW 5.1 km/h 10.3 km/h 67 % 0 mm
03:10 -12.1 °C -15.6 °C 34361.1 hPa East 5.1 km/h 7.7 km/h 65 % 0 mm
03:20 -11.8 °C -15.5 °C 34361.1 hPa East 5.1 km/h 10.3 km/h 63 % 0 mm
03:40 -11.6 °C -15.4 °C 34395 hPa ESE 5.1 km/h 7.7 km/h 62 % 0 mm
03:50 -11.1 °C -15.2 °C 34395 hPa East 2.6 km/h 5.1 km/h 61 % 0 mm
04:00 -11.1 °C -15.8 °C 34395 hPa ENE 7.7 km/h 10.3 km/h 56 % 0 mm
04:10 -10.9 °C -15.8 °C 34361.1 hPa NE 5.1 km/h 5.1 km/h 55 % 0 mm
04:20 -10.7 °C -15.9 °C 34361.1 hPa North 2.6 km/h 5.1 km/h 53 % 0 mm
10:21 -10.5 °C -15.6 °C 34361.1 hPa WNW 9 km/h 9 km/h 54 % 0 mm
10:22 -10.5 °C -15.6 °C 34361.1 hPa West 6 km/h 6 km/h 54 % 0 mm
10:27 -10.3 °C -15.6 °C 34361.1 hPa ENE 6 km/h 6 km/h 53 % 0 mm
10:32 -10.3 °C -15.7 °C 34361.1 hPa West 6.3 km/h 6.3 km/h 52 % 0 mm
10:37 -10.2 °C -15.7 °C 34361.1 hPa NNE 3.7 km/h 3.7 km/h 51 % 0 mm
10:42 -10.1 °C -15.6 °C 34361.1 hPa ENE 4.2 km/h 4.2 km/h 51 % 0 mm
10:47 -10.1 °C -16.2 °C 34361.1 hPa ENE 15 km/h 15 km/h 48 % 0 mm
10:52 -10.2 °C -16.2 °C 34395 hPa ENE 15 km/h 15 km/h 48 % 0 mm
10:57 -10.3 °C -16.5 °C 34395 hPa NNE 11.9 km/h 11.9 km/h 47 % 0 mm
11:02 -10.3 °C -16.4 °C 34395 hPa NE 15.3 km/h 15.3 km/h 47 % 0 mm
11:07 -10.2 °C -16.3 °C 34395 hPa SW 6 km/h 6 km/h 47 % 0 mm
11:12 -10.2 °C -16.7 °C 34395 hPa West 11.9 km/h 11.9 km/h 45 % 0 mm
11:17 -10 °C -16.6 °C 34395 hPa WNW 11.9 km/h 11.9 km/h 45 % 0 mm
11:22 -10 °C -17.1 °C 34395 hPa NE 11.9 km/h 11.9 km/h 42 % 0 mm
11:27 -9.9 °C -17.2 °C 34395 hPa NE 14 km/h 14 km/h 41 % 0 mm
11:32 -9.9 °C -17.2 °C 34395 hPa NE 15.3 km/h 15.3 km/h 41 % 0 mm
11:37 -9.9 °C -17.3 °C 34395 hPa ENE 9 km/h 9 km/h 40 % 0 mm
11:42 -9.8 °C -17.1 °C 34395 hPa NNW 11.9 km/h 11.9 km/h 41 % 0 mm
11:47 -9.9 °C -17.9 °C 34395 hPa North 15 km/h 15 km/h 37 % 0 mm
11:52 -9.8 °C -17.8 °C 34395 hPa NNE 11.9 km/h 11.9 km/h 37 % 0 mm
11:57 -9.7 °C -18 °C 34395 hPa WNW 9 km/h 9 km/h 36 % 0 mm
12:02 -9.5 °C -17.8 °C 34395 hPa NNW 9 km/h 9 km/h 36 % 0 mm
12:07 -9.3 °C -17.7 °C 34395 hPa NNE 9.8 km/h 9.8 km/h 36 % 0 mm
12:12 -9.4 °C -17.7 °C 34395 hPa NNE 9 km/h 9 km/h 36 % 0 mm
12:17 -9.4 °C -18.2 °C 34395 hPa NNW 15 km/h 15 km/h 34 % 0 mm
12:22 -9.6 °C -18.3 °C 34361.1 hPa NE 15 km/h 15 km/h 34 % 0 mm
12:27 -9.6 °C -18.3 °C 34361.1 hPa North 17.9 km/h 17.9 km/h 34 % 0 mm
12:32 -9.5 °C -18.5 °C 34361.1 hPa NW 9 km/h 9 km/h 33 % 0 mm
12:37 -9.4 °C -18.4 °C 34361.1 hPa NNE 16.6 km/h 16.6 km/h 33 % 0 mm
12:42 -9.5 °C -18.5 °C 34361.1 hPa North 15 km/h 15 km/h 33 % 0 mm
12:48 -9.4 °C -18.4 °C 34361.1 hPa NNE 12.2 km/h 12.2 km/h 33 % 0 mm
12:53 -9.5 °C -18.7 °C 34361.1 hPa North 20.9 km/h 20.9 km/h 32 % 0 mm
12:58 -9.4 °C -18.7 °C 34361.1 hPa NE 11.9 km/h 11.9 km/h 32 % 0 mm
13:03 -9.4 °C -18.7 °C 34361.1 hPa ENE 15 km/h 15 km/h 32 % 0 mm
13:08 -9.4 °C -18.7 °C 34361.1 hPa ENE 17.9 km/h 17.9 km/h 32 % 0 mm
13:13 -9.4 °C -18.9 °C 34361.1 hPa NNE 20.9 km/h 20.9 km/h 31 % 0 mm
13:18 -9.4 °C -18.9 °C 34361.1 hPa North 23.8 km/h 23.8 km/h 31 % 0 mm
13:23 -9.4 °C -18.9 °C 34361.1 hPa NNE 15 km/h 15 km/h 31 % 0 mm
13:28 -9.4 °C -18.9 °C 34361.1 hPa NE 22 km/h 22 km/h 31 % 0 mm
13:33 -9.4 °C -19.1 °C 34361.1 hPa ENE 17.9 km/h 17.9 km/h 30 % 0 mm
13:38 -9.4 °C -19.1 °C 34361.1 hPa WNW 15.3 km/h 15.3 km/h 30 % 0 mm
13:43 -9.4 °C -19.1 °C 34361.1 hPa NNW 11.9 km/h 11.9 km/h 30 % 0 mm
13:48 -9.4 °C -19.1 °C 34361.1 hPa NNW 15 km/h 15 km/h 30 % 0 mm
13:53 -9.4 °C -19.1 °C 34361.1 hPa NE 7.6 km/h 7.6 km/h 30 % 0 mm
13:58 -9.4 °C -19.1 °C 34361.1 hPa ENE 12.7 km/h 12.7 km/h 30 % 0 mm
14:03 -9.4 °C -19.1 °C 34361.1 hPa North 9.8 km/h 9.8 km/h 30 % 0 mm
14:08 -9.4 °C -19.1 °C 34361.1 hPa ENE 11.9 km/h 11.9 km/h 30 % 0 mm
14:13 -9.5 °C -19.7 °C 34361.1 hPa NNW 16.6 km/h 16.6 km/h 28 % 0 mm
14:18 -9.4 °C -19.1 °C 34361.1 hPa SW 7.6 km/h 7.6 km/h 30 % 0 mm
14:23 -9.3 °C -19.3 °C 34361.1 hPa SW 17.9 km/h 17.9 km/h 29 % 0 mm
14:28 -9.2 °C -19.2 °C 34361.1 hPa NW 9.8 km/h 9.8 km/h 29 % 0 mm
14:33 -9.3 °C -19.3 °C 34361.1 hPa SSE 11.9 km/h 11.9 km/h 29 % 0 mm
14:38 -9.3 °C -19.6 °C 34361.1 hPa North 5.1 km/h 5.1 km/h 28 % 0 mm
14:43 -9.2 °C -19.2 °C 34361.1 hPa NNW 10.3 km/h 10.3 km/h 29 % 0 mm
14:48 -9.2 °C -19.2 °C 34361.1 hPa North 20.9 km/h 20.9 km/h 29 % 0 mm
14:53 -9.2 °C -19.5 °C 34361.1 hPa NNE 9 km/h 9 km/h 28 % 0 mm
14:58 -9.3 °C -19.5 °C 34361.1 hPa NE 11.9 km/h 11.9 km/h 28 % 0 mm
15:03 -9.4 °C -19.9 °C 34361.1 hPa NW 26.9 km/h 26.9 km/h 27 % 0 mm
15:08 -9.4 °C -19.9 °C 34361.1 hPa ENE 11.9 km/h 11.9 km/h 27 % 0 mm
15:13 -9.4 °C -19.7 °C 34361.1 hPa SW 20.9 km/h 20.9 km/h 28 % 0 mm
15:18 -9.3 °C -19.8 °C 34361.1 hPa NNW 16.1 km/h 16.1 km/h 27 % 0 mm
15:23 -9.4 °C -19.9 °C 34361.1 hPa ESE 6 km/h 6 km/h 27 % 0 mm
15:28 -9.4 °C -19.9 °C 34361.1 hPa North 15 km/h 15 km/h 27 % 0 mm
15:33 -9.4 °C -19.9 °C 34361.1 hPa NW 16.1 km/h 16.1 km/h 27 % 0 mm
15:38 -9.6 °C -20.1 °C 34361.1 hPa WNW 17.9 km/h 17.9 km/h 27 % 0 mm
15:43 -9.5 °C -19.9 °C 34361.1 hPa NE 9.3 km/h 9.3 km/h 27 % 0 mm
15:48 -9.5 °C -19.9 °C 34361.1 hPa WNW 15 km/h 15 km/h 27 % 0 mm
15:53 -9.4 °C -19.9 °C 34361.1 hPa NNW 9 km/h 9 km/h 27 % 0 mm
15:58 -9.4 °C -19.9 °C 34361.1 hPa WSW 9.3 km/h 9.3 km/h 27 % 0 mm
16:03 -9.4 °C -20.2 °C 34361.1 hPa WNW 11.9 km/h 11.9 km/h 26 % 0 mm
16:08 -9.5 °C -20.2 °C 34361.1 hPa WSW 20.9 km/h 20.9 km/h 26 % 0 mm
16:13 -9.6 °C -20.3 °C 34361.1 hPa NNW 11.9 km/h 11.9 km/h 26 % 0 mm
16:18 -9.6 °C -20.3 °C 34361.1 hPa WSW 15 km/h 15 km/h 26 % 0 mm
16:23 -9.7 °C -20.7 °C 34361.1 hPa NNW 15 km/h 15 km/h 25 % 0 mm
16:28 -9.7 °C -20.7 °C 34361.1 hPa WNW 9 km/h 9 km/h 25 % 0 mm
16:33 -9.8 °C -20.8 °C 34361.1 hPa South 11.9 km/h 11.9 km/h 25 % 0 mm
16:38 -9.7 °C -20.4 °C 34361.1 hPa West 11.9 km/h 11.9 km/h 26 % 0 mm
16:43 -9.8 °C -20.8 °C 34361.1 hPa WSW 6.8 km/h 6.8 km/h 25 % 0 mm
16:48 -9.8 °C -20.8 °C 34361.1 hPa West 11.9 km/h 11.9 km/h 25 % 0 mm
16:53 -9.9 °C -20.9 °C 34395 hPa SSW 15 km/h 15 km/h 25 % 0 mm
16:58 -10 °C -21 °C 34395 hPa WSW 15 km/h 15 km/h 25 % 0 mm
17:03 -10.1 °C -21 °C 34395 hPa South 18.3 km/h 18.3 km/h 25 % 0 mm
17:08 -10.2 °C -21.4 °C 34395 hPa WSW 32.8 km/h 32.8 km/h 24 % 0 mm
17:13 -10.4 °C -21.6 °C 34395 hPa WSW 15 km/h 15 km/h 24 % 0 mm
17:18 -10.5 °C -22 °C 34395 hPa WSW 17.9 km/h 17.9 km/h 23 % 0 mm
17:23 -10.6 °C -22.1 °C 34395 hPa WNW 15 km/h 15 km/h 23 % 0 mm
17:28 -10.7 °C -22.2 °C 34395 hPa NW 19.6 km/h 19.6 km/h 23 % 0 mm
17:33 -10.8 °C -22.3 °C 34395 hPa WNW 14 km/h 14 km/h 23 % 0 mm
17:38 -10.9 °C -22.3 °C 34395 hPa WNW 20.9 km/h 20.9 km/h 23 % 0 mm
17:43 -11 °C -22.4 °C 34395 hPa WNW 15.3 km/h 15.3 km/h 23 % 0 mm
17:48 -11.1 °C -22.4 °C 34395 hPa WSW 9 km/h 9 km/h 23 % 0 mm
17:53 -11.1 °C -22.6 °C 34395 hPa West 17.9 km/h 17.9 km/h 23 % 0 mm
17:58 -11.2 °C -22.9 °C 34395 hPa North 15 km/h 15 km/h 22 % 0 mm
18:03 -11.2 °C -22.6 °C 34395 hPa WSW 12.7 km/h 12.7 km/h 23 % 0 mm
18:08 -11.3 °C -22.7 °C 34395 hPa WSW 11.9 km/h 11.9 km/h 23 % 0 mm
18:13 -11.4 °C -22.7 °C 34395 hPa WNW 9.8 km/h 9.8 km/h 23 % 0 mm
18:18 -11.4 °C -22.8 °C 34395 hPa SW 20.9 km/h 20.9 km/h 23 % 0 mm
18:20 -13.3 °C -23.8 °C 34361.1 hPa West 7.7 km/h 7.7 km/h 25 % 0 mm
18:23 -11.5 °C -22.8 °C 34395 hPa West 15 km/h 15 km/h 23 % 0 mm
18:28 -11.5 °C -22.8 °C 34395 hPa West 12.2 km/h 12.2 km/h 23 % 0 mm
18:30 -13.4 °C -23.6 °C 34361.1 hPa West 15.6 km/h 15.6 km/h 26 % 0 mm
18:33 -11.6 °C -22.9 °C 34395 hPa West 17.9 km/h 17.9 km/h 23 % 0 mm
18:38 -11.6 °C -22.9 °C 34395 hPa WSW 15 km/h 15 km/h 23 % 0 mm
18:40 -13.6 °C -23.7 °C 34361.1 hPa West 7.7 km/h 10.3 km/h 26 % 0 mm
18:43 -11.7 °C -23 °C 34395 hPa WNW 9 km/h 9 km/h 23 % 0 mm
18:48 -11.7 °C -23 °C 34395 hPa WNW 9 km/h 9 km/h 23 % 0 mm
18:50 -13.6 °C -23.7 °C 34361.1 hPa WSW 7.7 km/h 20.8 km/h 26 % 0 mm
18:53 -11.8 °C -23.1 °C 34395 hPa WNW 15 km/h 15 km/h 23 % 0 mm
18:58 -11.8 °C -23.1 °C 34395 hPa West 15 km/h 15 km/h 23 % 0 mm
19:03 -11.9 °C -23.2 °C 34395 hPa SW 9 km/h 9 km/h 23 % 0 mm
19:08 -11.9 °C -23.2 °C 34395 hPa West 9 km/h 9 km/h 23 % 0 mm
19:10 -13.8 °C -23.7 °C 34361.1 hPa WSW 7.7 km/h 10.3 km/h 27 % 0 mm
19:13 -12 °C -23.3 °C 34395 hPa West 11.9 km/h 11.9 km/h 23 % 0 mm
19:18 -11.9 °C -23.2 °C 34395 hPa WNW 8 km/h 8 km/h 23 % 0 mm
19:20 -14 °C -23.8 °C 34361.1 hPa WSW 5.1 km/h 10.3 km/h 27 % 0 mm
19:23 -11.9 °C -23.2 °C 34395 hPa WSW 9 km/h 9 km/h 23 % 0 mm
19:28 -12.1 °C -23.3 °C 34395 hPa WSW 6 km/h 6 km/h 23 % 0 mm
19:30 -14.1 °C -23.7 °C 34395 hPa WSW 5.1 km/h 10.3 km/h 28 % 0 mm
19:33 -12.1 °C -23.4 °C 34395 hPa West 9.8 km/h 9.8 km/h 23 % 0 mm
19:38 -12.1 °C -23.4 °C 34395 hPa WSW 15 km/h 15 km/h 23 % 0 mm
19:40 -14.1 °C -23.7 °C 34395 hPa WSW 2.6 km/h 7.7 km/h 28 % 0 mm
19:43 -12.2 °C -23.4 °C 34395 hPa WSW 11.9 km/h 11.9 km/h 23 % 0 mm
19:48 -12.3 °C -23.5 °C 34395 hPa West 6 km/h 6 km/h 23 % 0 mm
19:50 -13.9 °C -23.8 °C 34395 hPa WSW 5.1 km/h 5.1 km/h 27 % 0 mm
19:53 -12.3 °C -23.5 °C 34395 hPa SW 6 km/h 6 km/h 23 % 0 mm
19:58 -12.3 °C -23.6 °C 34395 hPa West 9 km/h 9 km/h 23 % 0 mm
19:59 -12.3 °C -23.6 °C 34395 hPa West 9 km/h 9 km/h 23 % 0 mm
20:00 -14.2 °C -23.7 °C 34395 hPa Calm   7.7 km/h 28 % 0 mm
20:04 -12.3 °C -23.5 °C 34361.1 hPa WSW 9 km/h 9 km/h 23 % 0 mm
20:09 -12.2 °C -23.4 °C 34361.1 hPa West 11.1 km/h 11.1 km/h 23 % 0 mm
20:10 -14.3 °C -23.8 °C 34395 hPa SW 7.7 km/h 7.7 km/h 28 % 0 mm
20:14 -12.2 °C -23.4 °C 34361.1 hPa WSW 6 km/h 6 km/h 23 % 0 mm
20:19 -12.3 °C -23.5 °C 34395 hPa WNW 5.6 km/h 5.6 km/h 23 % 0 mm
20:20 -14.4 °C -24 °C 34395 hPa SW 7.7 km/h 7.7 km/h 28 % 0 mm
20:24 -12.3 °C -23.5 °C 34395 hPa ENE 6 km/h 6 km/h 23 % 0 mm
20:29 -12.3 °C -23.5 °C 34395 hPa NNE 15 km/h 15 km/h 23 % 0 mm
20:30 -14.4 °C -23.7 °C 34395 hPa WSW 5.1 km/h 7.7 km/h 29 % 0 mm
20:34 -12.3 °C -23.6 °C 34361.1 hPa NNW 11.9 km/h 11.9 km/h 23 % 0 mm
20:39 -12.3 °C -23.5 °C 34361.1 hPa SW 6 km/h 6 km/h 23 % 0 mm
20:40 -14.2 °C -23.5 °C 34395 hPa West 2.6 km/h 7.7 km/h 29 % 0 mm
20:44 -12.3 °C -23.5 °C 34361.1 hPa SW 6 km/h 6 km/h 23 % 0 mm
20:49 -12.3 °C -23.2 °C 34361.1 hPa WSW 9 km/h 9 km/h 24 % 0 mm
20:50 -14 °C -23.4 °C 34395 hPa WSW 5.1 km/h 7.7 km/h 29 % 0 mm
20:54 -12.2 °C -23.2 °C 34361.1 hPa SW 11.9 km/h 11.9 km/h 24 % 0 mm
20:59 -12.2 °C -23.4 °C 34361.1 hPa WSW 11.9 km/h 11.9 km/h 23 % 0 mm
21:00 -14.1 °C -23.4 °C 34395 hPa SW 2.6 km/h 7.7 km/h 29 % 0 mm
21:04 -12.1 °C -23.1 °C 34361.1 hPa West 16.6 km/h 16.6 km/h 24 % 0 mm
21:09 -12.1 °C -23.4 °C 34361.1 hPa West 15.3 km/h 15.3 km/h 23 % 0 mm
21:10 -14.5 °C -23.8 °C 34395 hPa WSW 5.1 km/h 7.7 km/h 29 % 0 mm
21:14 -12.2 °C -23.4 °C 34361.1 hPa WSW 15 km/h 15 km/h 23 % 0 mm
21:19 -12.2 °C -23.4 °C 34361.1 hPa SW 17.9 km/h 17.9 km/h 23 % 0 mm
21:20 -14.4 °C -23.5 °C 34395 hPa WSW 5.1 km/h 7.7 km/h 30 % 0 mm
21:24 -12.2 °C -23.4 °C 34361.1 hPa WSW 17.9 km/h 17.9 km/h 23 % 0 mm
21:29 -12.2 °C -23.4 °C 34361.1 hPa SW 15 km/h 15 km/h 23 % 0 mm
21:30 -14.3 °C -23.4 °C 34395 hPa WSW 7.7 km/h 15.6 km/h 30 % 0 mm
21:34 -12.3 °C -23.5 °C 34361.1 hPa WSW 15 km/h 15 km/h 23 % 0 mm
21:39 -12.3 °C -23.6 °C 34361.1 hPa West 14 km/h 14 km/h 23 % 0 mm
21:40 -14.3 °C -23.4 °C 34395 hPa WSW 7.7 km/h 15.6 km/h 30 % 0 mm
21:44 -12.2 °C -23.4 °C 34361.1 hPa West 20.9 km/h 20.9 km/h 23 % 0 mm
21:49 -12.3 °C -23.6 °C 34361.1 hPa WSW 9 km/h 9 km/h 23 % 0 mm
21:50 -14.3 °C -23.4 °C 34395 hPa WSW 7.7 km/h 12.9 km/h 30 % 0 mm
21:54 -12.4 °C -23.7 °C 34361.1 hPa West 9.8 km/h 9.8 km/h 23 % 0 mm
21:59 -12.5 °C -23.7 °C 34361.1 hPa WSW 9 km/h 9 km/h 23 % 0 mm
22:00 -14.3 °C -23.4 °C 34395 hPa West 5.1 km/h 10.3 km/h 30 % 0 mm
22:04 -12.6 °C -23.7 °C 34395 hPa SSW 11.9 km/h 11.9 km/h 23 % 0 mm
22:09 -12.6 °C -23.8 °C 34395 hPa WSW 11.9 km/h 11.9 km/h 23 % 0 mm
22:10 -14.3 °C -23.4 °C 34361.1 hPa West 7.7 km/h 15.6 km/h 30 % 0 mm
22:14 -12.6 °C -23.7 °C 34395 hPa SW 12.7 km/h 12.7 km/h 23 % 0 mm
22:19 -12.6 °C -23.8 °C 34395 hPa WSW 11.9 km/h 11.9 km/h 23 % 0 mm
22:20 -12.6 °C -23.8 °C 34395 hPa WSW 11.9 km/h 11.9 km/h 23 % 0 mm
22:25 -12.7 °C -23.9 °C 34395 hPa WSW 11.9 km/h 11.9 km/h 23 % 0 mm
22:30 -12.7 °C -23.9 °C 34395 hPa West 9 km/h 9 km/h 23 % 0 mm
22:35 -12.8 °C -23.9 °C 34395 hPa WSW 9 km/h 9 km/h 23 % 0 mm
22:40 -12.8 °C -23.9 °C 34395 hPa WNW 16.1 km/h 16.1 km/h 23 % 0 mm
22:45 -12.7 °C -23.8 °C 34395 hPa WSW 17.9 km/h 17.9 km/h 23 % 0 mm
22:50 -12.5 °C -23.7 °C 34395 hPa WSW 17.9 km/h 17.9 km/h 23 % 0 mm
22:55 -12.7 °C -23.8 °C 34395 hPa SSW 11.9 km/h 11.9 km/h 23 % 0 mm
23:00 -12.8 °C -24 °C 34395 hPa WSW 9 km/h 9.3 km/h 23 % 0 mm
23:05 -12.9 °C -24.1 °C 34395 hPa SW 9 km/h 9 km/h 23 % 0 mm
23:10 -12.9 °C -24.1 °C 34395 hPa WSW 9 km/h 9 km/h 23 % 0 mm
23:15 -12.9 °C -23.8 °C 34395 hPa WSW 11.9 km/h 11.9 km/h 24 % 0 mm
23:20 -13 °C -23.8 °C 34395 hPa WSW 7.7 km/h 15.6 km/h 24 % 0 mm
23:25 -12.9 °C -23.8 °C 34395 hPa WSW 11.9 km/h 12.7 km/h 24 % 0 mm
23:30 -12.9 °C -23.7 °C 34395 hPa WSW 9.3 km/h 9.3 km/h 24 % 0 mm
23:35 -13 °C -23.8 °C 34395 hPa WSW 7.7 km/h 15.6 km/h 24 % 0 mm
23:40 -13.1 °C -23.9 °C 34395 hPa WSW 5.1 km/h 7.7 km/h 24 % 0 mm
23:45 -13.2 °C -23.7 °C 34395 hPa SW 5.1 km/h 15.6 km/h 25 % 0 mm
23:50 -13.3 °C -23.8 °C 34395 hPa West 15 km/h 15 km/h 25 % 0 mm
23:55 -13.3 °C -23.8 °C 34395 hPa SW 11.9 km/h 11.9 km/h 25 % 0 mm
Meteo Sesrovires
Elogis d' Weather Underground - 1.5 mb

Guio original per  Jim McMurry - jmcmurry@mwt.net Adaptat per a la plantilla per  Wim van der Kuil - Leuven-Template.eu

Trobareu la nostra informacio del temps tambe a:

Weather Underground

AWEKAS